Time;durP1;ratioP1;P1;durP2;ratioP2;P2;SDS_P1;SDS_P2;PMS_P1;PMS_P2;Temp;Humidity;BMP_temperature;BMP_pressure;BME280_temperature;BME280_humidity;BME280_pressure;Samples;Min_cycle;Max_cycle;Signal;HPM_P1;HPM_P2
2021/04/23 00:05:47;;;;;;;20.32;15.85;;;;;;;6.93;100.00;101395.83;1760167;80;21156;-88
2021/04/23 00:08:17;;;;;;;23.95;17.27;;;;;;;6.92;100.00;101400.64;1757286;81;21840;-90
2021/04/23 00:10:48;;;;;;;21.97;17.90;;;;;;;6.92;100.00;101403.67;1749985;81;21130;-89
2021/04/23 00:13:21;;;;;;;21.23;17.57;;;;;;;6.90;100.00;101402.46;1717963;82;21127;-90
2021/04/23 00:15:55;;;;;;;21.25;17.10;;;;;;;6.88;100.00;101404.27;1748336;82;21067;-90
2021/04/23 00:22:47;;;;;;;19.15;16.02;;;;;;;6.83;100.00;101401.08;1734075;80;21578;-90
2021/04/23 00:25:27;;;;;;;18.75;16.17;;;;;;;6.75;100.00;101405.77;1757706;80;21569;-91
2021/04/23 00:35:50;;;;;;;19.75;16.97;;;;;;;6.70;100.00;101393.47;1794119;79;21138;-91
2021/04/23 00:42:11;;;;;;;18.05;15.90;;;;;;;6.74;100.00;101406.67;1777543;79;21467;-89
2021/04/23 00:44:47;;;;;;;21.17;15.88;;;;;;;6.77;100.00;101404.78;1777568;79;21162;-90
2021/04/23 00:47:17;;;;;;;21.60;17.32;;;;;;;6.79;100.00;101398.23;1777585;80;21142;-91
2021/04/23 00:49:46;;;;;;;19.98;16.45;;;;;;;6.78;100.00;101391.37;1779634;79;21162;-88
2021/04/23 00:52:14;;;;;;;21.60;16.52;;;;;;;6.76;100.00;101394.04;1787137;80;21605;-90
2021/04/23 00:54:42;;;;;;;18.90;16.55;;;;;;;6.74;100.00;101393.27;1777479;80;21605;-91
2021/04/23 00:57:43;;;;;;;21.87;16.35;;;;;;;6.74;100.00;101393.73;1777688;80;21125;-88
2021/04/23 01:00:20;;;;;;;19.70;17.45;;;;;;;6.75;100.00;101390.23;1777437;80;21541;-91
2021/04/23 01:07:13;;;;;;;22.80;17.75;;;;;;;6.73;100.00;101393.34;1777638;80;21232;-87
2021/04/23 01:14:05;;;;;;;21.65;17.55;;;;;;;6.66;100.00;101390.66;1804553;79;21163;-88
2021/04/23 01:21:27;;;;;;;24.45;19.12;;;;;;;6.57;100.00;101376.41;1804506;79;21159;-87
2021/04/23 01:36:35;;;;;;;19.65;16.95;;;;;;;6.30;100.00;101377.57;1838070;76;22759;-91
2021/04/23 01:39:10;;;;;;;21.45;17.23;;;;;;;6.28;100.00;101379.41;1840960;78;21401;-91
2021/04/23 01:41:42;;;;;;;21.50;18.52;;;;;;;6.35;100.00;101390.30;1841002;77;21255;-91
2021/04/23 01:44:12;;;;;;;23.85;20.02;;;;;;;6.40;100.00;101386.21;1853373;77;21155;-91
2021/04/23 01:46:42;;;;;;;23.15;19.75;;;;;;;6.45;100.00;101384.25;1812535;77;21150;-91
2021/04/23 01:49:17;;;;;;;22.90;18.62;;;;;;;6.45;100.00;101376.48;1806286;77;21162;-90
2021/04/23 01:51:58;;;;;;;23.55;18.10;;;;;;;6.42;100.00;101370.17;1805995;79;21050;-92
2021/04/23 01:58:51;;;;;;;22.25;17.92;;;;;;;6.39;100.00;101363.83;1853600;77;21004;-87
2021/04/23 02:05:35;;;;;;;21.50;18.60;;;;;;;6.36;100.00;101371.28;1854047;76;21154;-87
2021/04/23 02:12:27;;;;;;;24.85;19.23;;;;;;;6.31;100.00;101371.96;1853735;77;21416;-88
2021/04/23 02:19:20;;;;;;;26.97;18.48;;;;;;;6.31;100.00;101368.91;1853735;77;21171;-87
2021/04/23 02:25:53;;;;;;;24.05;19.48;;;;;;;6.29;100.00;101359.54;1853747;77;21130;-88
2021/04/23 02:32:44;;;;;;;29.05;21.57;;;;;;;6.23;100.00;101361.94;1853665;77;21107;-88
2021/04/23 02:39:19;;;;;;;34.23;23.80;;;;;;;6.21;100.00;101358.58;1853695;77;21131;-88
2021/04/23 02:46:12;;;;;;;37.42;25.88;;;;;;;6.17;100.00;101361.40;1853795;77;21016;-88
2021/04/23 02:53:06;;;;;;;42.48;27.62;;;;;;;6.08;100.00;101367.80;1853734;77;20988;-87
2021/04/23 02:59:58;;;;;;;40.55;28.05;;;;;;;6.01;100.00;101374.98;1852619;76;21449;-87
2021/04/23 03:06:51;;;;;;;41.65;29.48;;;;;;;6.07;100.00;101368.70;1820139;78;21001;-88
2021/04/23 03:13:51;;;;;;;38.95;27.05;;;;;;;6.12;100.00;101357.72;1820235;78;21439;-89
2021/04/23 03:25:09;;;;;;;44.35;30.15;;;;;;;6.33;100.00;101362.83;1787791;80;21589;-87
2021/04/23 03:32:01;;;;;;;41.13;29.57;;;;;;;6.44;100.00;101365.31;1833717;77;21020;-88
2021/04/23 03:38:26;;;;;;;46.45;32.08;;;;;;;6.58;100.00;101351.74;1765006;78;21531;-88
2021/04/23 03:41:11;;;;;;;45.17;31.73;;;;;;;6.68;100.00;101357.32;1773038;80;21084;-88
2021/04/23 03:48:05;;;;;;;45.98;30.57;;;;;;;6.85;100.00;101361.69;1772706;81;21179;-88
2021/04/23 03:54:56;;;;;;;49.75;32.83;;;;;;;7.13;100.00;101356.48;1757340;81;21199;-88
2021/04/23 04:01:48;;;;;;;46.85;32.15;;;;;;;7.38;100.00;101352.22;1787445;78;21191;-89
2021/04/23 04:08:42;;;;;;;43.10;30.48;;;;;;;7.62;100.00;101345.89;1781570;78;21144;-89
2021/04/23 04:15:36;;;;;;;40.67;29.85;;;;;;;7.87;100.00;101348.05;1788387;78;21156;-87
2021/04/23 04:18:12;;;;;;;50.48;31.68;;;;;;;8.03;100.00;101348.09;1805360;79;21553;-87
2021/04/23 04:20:45;;;;;;;39.38;28.42;;;;;;;8.28;100.00;101347.62;1828684;78;21127;-87
2021/04/23 04:23:17;;;;;;;54.90;29.80;;;;;;;8.65;100.00;101353.89;1799246;78;21110;-89
2021/04/23 04:25:51;;;;;;;;;;;;;;;8.84;100.00;101349.81;1807066;79;21354;-90
2021/04/23 04:28:21;;;;;;;43.08;28.07;;;;;;;8.98;100.00;101342.06;1838375;77;20252;-89
2021/04/23 04:35:14;;;;;;;38.67;27.35;;;;;;;9.26;100.00;101338.34;1743463;82;21178;-90
2021/04/23 04:41:47;;;;;;;35.52;25.60;;;;;;;9.58;100.00;101339.52;1757063;81;21544;-89
2021/04/23 04:44:52;;;;;;;39.05;24.23;;;;;;;9.78;100.00;101343.08;1757905;80;21578;-89
2021/04/23 04:51:43;;;;;;;36.85;23.95;;;;;;;10.01;100.00;101339.54;1757509;81;21147;-90
2021/04/23 04:58:37;;;;;;;33.65;21.85;;;;;;;10.30;100.00;101332.98;1757265;81;21536;-90
2021/04/23 05:01:14;;;;;;;;;;;;;;;10.39;100.00;101319.91;1760128;81;21132;-90
2021/04/23 05:11:33;;;;;;;37.80;22.80;;;;;;;10.37;100.00;101313.95;1785686;78;20993;-89
2021/04/23 05:21:47;;;;;;;32.30;21.60;;;;;;;10.64;100.00;101322.25;1757133;81;21068;-89
2021/04/23 05:24:15;;;;;;;34.73;23.20;;;;;;;10.79;100.00;101322.56;1785740;80;21047;-89
2021/04/23 05:27:12;;;;;;;38.63;22.37;;;;;;;10.86;100.00;101317.77;1758567;79;21180;-89
2021/04/23 05:29:42;;;;;;;35.30;22.87;;;;;;;10.92;100.00;101316.54;1800859;78;21291;-90
2021/04/23 05:32:14;;;;;;;37.33;20.95;;;;;;;10.97;100.00;101311.88;1805665;79;21130;-89
2021/04/23 05:34:51;;;;;;;28.77;19.87;;;;;;;11.04;100.00;101316.58;1816681;78;21108;-89
2021/04/23 05:41:42;;;;;;;30.77;19.80;;;;;;;11.21;100.00;101310.71;1771183;79;21151;-89
2021/04/23 05:44:38;;;;;;;27.55;18.52;;;;;;;11.41;100.00;101315.07;1774027;80;22192;-89
2021/04/23 05:54:38;;;;;;;23.62;17.90;;;;;;;11.66;100.00;101315.53;1767692;79;21067;-89
2021/04/23 05:57:39;;;;;;;25.35;18.57;;;;;;;11.77;100.00;101309.11;1801955;79;21102;-90
2021/04/23 06:08:19;;;;;;;17.27;15.48;;;;;;;12.14;100.00;101293.95;1755329;79;21168;-90
2021/04/23 06:19:05;;;;;;;19.35;13.80;;;;;;;12.49;100.00;101286.69;1814935;78;21789;-88
2021/04/23 06:25:57;;;;;;;17.48;13.85;;;;;;;12.69;100.00;101285.72;1811933;78;21104;-88
2021/04/23 06:40:10;;;;;;;15.32;13.65;;;;;;;13.01;100.00;101286.41;1797838;79;21127;-85
2021/04/23 06:42:38;;;;;;;15.40;13.40;;;;;;;13.06;100.00;101289.50;1809897;78;21544;-89
2021/04/23 06:45:10;;;;;;;18.87;13.55;;;;;;;13.11;100.00;101283.45;1801318;78;21054;-89
2021/04/23 06:47:38;;;;;;;15.03;13.50;;;;;;;13.22;100.00;101287.89;1802056;78;21119;-89
2021/04/23 06:50:10;;;;;;;16.32;13.93;;;;;;;13.34;100.00;101280.89;1779922;79;21361;-88
2021/04/23 06:52:41;;;;;;;19.02;12.50;;;;;;;13.49;100.00;101275.83;1786880;78;21464;-89
2021/04/23 06:55:12;;;;;;;14.98;12.68;;;;;;;13.65;100.00;101279.38;1798674;79;21060;-89
2021/04/23 06:57:40;;;;;;;13.30;11.50;;;;;;;13.81;100.00;101272.48;1796058;79;21153;-89
2021/04/23 07:00:17;;;;;;;14.28;11.73;;;;;;;13.95;100.00;101271.86;1788237;79;21124;-89
2021/04/23 07:02:45;;;;;;;12.75;11.18;;;;;;;14.06;100.00;101269.20;1767429;80;21524;-88
2021/04/23 07:05:15;;;;;;;15.53;12.23;;;;;;;14.15;100.00;101268.97;1785562;78;21141;-89
2021/04/23 07:11:10;;;;;;;12.73;11.53;;;;;;;14.37;100.00;101266.77;1780181;78;21120;-89
2021/04/23 07:13:38;;;;;;;12.98;11.73;;;;;;;14.54;100.00;101272.43;1734513;80;21200;-89
2021/04/23 07:16:06;;;;;;;13.00;11.22;;;;;;;14.64;100.00;101261.53;1746992;79;22128;-89
2021/04/23 07:18:34;;;;;;;11.50;10.40;;;;;;;14.73;100.00;101266.05;1748103;79;21563;-90
2021/04/23 07:21:03;;;;;;;12.23;11.03;;;;;;;14.81;100.00;101262.80;1769618;79;21159;-89
2021/04/23 07:23:31;;;;;;;12.58;10.28;;;;;;;14.91;100.00;101262.37;1746557;80;21144;-89
2021/04/23 07:25:59;;;;;;;11.83;10.60;;;;;;;15.01;100.00;101258.52;1771109;78;21052;-89
2021/04/23 07:28:29;;;;;;;13.08;10.55;;;;;;;15.07;100.00;101261.93;1799517;78;21106;-90
2021/04/23 07:30:57;;;;;;;12.45;11.22;;;;;;;15.16;100.00;101260.80;1803378;77;21115;-90
2021/04/23 07:33:25;;;;;;;11.28;10.18;;;;;;;15.20;100.00;101253.86;1774786;78;21200;-91
2021/04/23 07:35:54;;;;;;;11.55;10.10;;;;;;;15.22;100.00;101257.16;1800836;78;21166;-90
2021/04/23 07:38:22;;;;;;;11.22;10.13;;;;;;;15.25;100.00;101251.66;1772007;80;21155;-90
2021/04/23 07:40:50;;;;;;;11.30;10.23;;;;;;;15.30;100.00;101240.29;1771849;81;21353;-89
2021/04/23 07:43:18;;;;;;;10.50;9.60;;;;;;;15.35;100.00;101252.20;1763426;78;21174;-89
2021/04/23 07:45:49;;;;;;;10.50;9.50;;;;;;;15.41;100.00;101248.58;1772506;79;21209;-89
2021/04/23 07:48:17;;;;;;;12.37;11.08;;;;;;;15.51;100.00;101245.14;1771343;78;21813;-89
2021/04/23 07:50:46;;;;;;;11.43;9.88;;;;;;;15.57;100.00;101247.26;1786340;78;21154;-89
2021/04/23 07:53:16;;;;;;;12.17;10.50;;;;;;;15.67;100.00;101244.16;1740375;81;21366;-89
2021/04/23 07:55:46;;;;;;;10.68;9.63;;;;;;;15.72;100.00;101249.86;1756329;81;21158;-89
2021/04/23 07:58:14;;;;;;;10.68;9.70;;;;;;;15.80;100.00;101240.48;1763634;78;21100;-89
2021/04/23 08:00:42;;;;;;;11.30;10.20;;;;;;;15.85;100.00;101238.30;1764586;80;21067;-90
2021/04/23 08:03:11;;;;;;;10.05;9.05;;;;;;;15.91;100.00;101235.98;1777418;78;21175;-89
2021/04/23 08:05:39;;;;;;;12.68;9.40;;;;;;;15.99;96.87;101231.34;1783696;78;21667;-89
2021/04/23 08:08:08;;;;;;;10.55;8.80;;;;;;;16.09;86.38;101235.32;1790803;79;21174;-89
2021/04/23 08:10:37;;;;;;;9.63;7.75;;;;;;;16.20;88.90;101234.36;1781831;78;21595;-90
2021/04/23 08:13:06;;;;;;;11.30;8.50;;;;;;;16.32;86.15;101229.30;1782627;78;21669;-90
2021/04/23 08:15:36;;;;;;;15.18;9.08;;;;;;;16.46;86.32;101229.87;1788473;78;21103;-89
2021/04/23 08:18:07;;;;;;;10.25;8.78;;;;;;;16.59;79.45;101228.25;1742628;80;21085;-89
2021/04/23 08:20:36;;;;;;;13.13;9.35;;;;;;;16.62;78.30;101224.88;1771786;81;21464;-91
2021/04/23 08:23:06;;;;;;;10.50;9.15;;;;;;;16.66;80.91;101219.67;1772270;79;21148;-90
2021/04/23 08:25:37;;;;;;;9.48;8.55;;;;;;;16.69;79.45;101225.13;1781039;78;21198;-90
2021/04/23 08:28:06;;;;;;;13.03;9.40;;;;;;;16.74;84.13;101216.83;1791518;78;21188;-90
2021/04/23 08:30:35;;;;;;;9.85;9.05;;;;;;;16.82;86.05;101223.52;1804867;79;21534;-90
2021/04/23 08:33:05;;;;;;;9.58;8.78;;;;;;;16.91;82.85;101220.05;1802858;78;21191;-90
2021/04/23 08:35:34;;;;;;;12.13;9.00;;;;;;;17.01;85.95;101220.89;1791695;78;21555;-90
2021/04/23 08:38:05;;;;;;;9.28;8.35;;;;;;;17.13;82.59;101215.44;1805220;79;21487;-89
2021/04/23 08:40:33;;;;;;;11.55;9.30;;;;;;;17.21;75.94;101218.18;1755945;79;21148;-90
2021/04/23 08:43:03;;;;;;;11.57;9.05;;;;;;;17.25;81.04;101212.98;1792900;78;21195;-90
2021/04/23 08:45:32;;;;;;;11.20;9.60;;;;;;;17.27;75.27;101201.80;1773986;79;21187;-90
2021/04/23 08:48:02;;;;;;;12.70;8.78;;;;;;;17.22;76.62;101209.31;1772010;79;21187;-89
2021/04/23 08:50:32;;;;;;;9.78;8.80;;;;;;;17.28;80.98;101213.17;1741198;82;21175;-90
2021/04/23 08:53:02;;;;;;;11.00;9.13;;;;;;;17.39;73.00;101209.52;1768005;79;21178;-90
2021/04/23 08:55:30;;;;;;;9.78;8.85;;;;;;;17.48;77.90;101196.81;1780105;78;21568;-90
2021/04/23 08:58:01;;;;;;;9.73;8.75;;;;;;;17.59;70.71;101201.05;1784157;78;21191;-90
2021/04/23 09:00:30;;;;;;;9.93;8.88;;;;;;;17.65;72.99;101194.70;1752712;80;21088;-88
2021/04/23 09:02:58;;;;;;;13.18;8.70;;;;;;;17.73;69.69;101193.14;1774270;79;21057;-90
2021/04/23 09:05:26;;;;;;;9.50;8.53;;;;;;;17.79;68.61;101185.45;1803844;78;21072;-90
2021/04/23 09:08:01;;;;;;;10.15;8.98;;;;;;;17.79;68.70;101201.75;1803638;79;21328;-90
2021/04/23 09:10:30;;;;;;;10.43;9.43;;;;;;;17.82;69.06;101197.02;1790598;79;21137;-90
2021/04/23 09:13:12;;;;;;;9.25;8.43;;;;;;;17.93;69.52;101189.88;1803690;79;21104;-90
2021/04/23 09:15:44;;;;;;;9.30;8.50;;;;;;;18.05;66.43;101196.60;1803631;78;21741;-90
2021/04/23 09:18:21;;;;;;;10.05;9.25;;;;;;;18.15;66.49;101188.61;1803779;79;21581;-90
2021/04/23 09:21:03;;;;;;;9.65;8.75;;;;;;;18.22;65.51;101185.73;1803724;79;21414;-90
2021/04/23 09:23:49;;;;;;;9.03;8.13;;;;;;;18.33;59.81;101179.39;1804179;79;21168;-87
2021/04/23 09:33:52;;;;;;;8.90;8.20;;;;;;;18.45;58.89;101167.61;1804407;79;21445;-87
2021/04/23 09:40:45;;;;;;;9.03;8.15;;;;;;;18.68;58.47;101165.78;1804325;79;21176;-86
2021/04/23 09:47:13;;;;;;;10.50;8.63;;;;;;;18.77;56.06;101154.80;1803771;79;21115;-87
2021/04/23 09:58:28;;;;;;;8.35;7.75;;;;;;;18.79;52.33;101136.17;1826373;78;20997;-87
2021/04/23 10:05:44;;;;;;;8.83;7.95;;;;;;;18.66;54.02;101135.27;1826378;78;21136;-87
2021/04/23 10:08:27;;;;;;;9.05;8.13;;;;;;;18.68;51.67;101125.41;1754958;79;21156;-87
2021/04/23 10:11:00;;;;;;;8.15;7.45;;;;;;;18.71;54.37;101125.07;1757325;80;22236;-85
2021/04/23 10:13:31;;;;;;;9.65;8.38;;;;;;;18.76;53.50;101129.41;1767848;80;21164;-86
2021/04/23 10:16:04;;;;;;;9.45;8.63;;;;;;;18.85;56.50;101135.54;1774221;79;21124;-86
2021/04/23 10:18:44;;;;;;;11.43;8.28;;;;;;;19.00;57.90;101121.30;1799568;79;21567;-85
2021/04/23 10:29:05;;;;;;;9.25;7.78;;;;;;;19.28;54.63;101103.89;1770478;79;21124;-85
2021/04/23 10:35:58;;;;;;;9.35;7.05;;;;;;;18.87;53.94;101105.38;1791285;79;21057;-85
2021/04/23 10:42:57;;;;;;;7.90;7.20;;;;;;;19.02;58.64;101099.04;1806071;78;21583;-85
2021/04/23 10:54:15;;;;;;;8.78;7.45;;;;;;;19.25;54.84;101073.87;1753919;81;21155;-85
2021/04/23 11:01:18;;;;;;;8.68;7.10;;;;;;;18.84;63.02;101063.49;1785443;79;21103;-85
2021/04/23 11:04:05;;;;;;;7.40;6.70;;;;;;;18.95;58.38;101060.27;1791501;78;21081;-85
2021/04/23 11:06:53;;;;;;;8.85;6.97;;;;;;;18.94;64.11;101053.34;1805805;79;21123;-85
2021/04/23 11:09:24;;;;;;;10.32;8.53;;;;;;;18.93;61.00;101051.69;1768405;80;21166;-85
2021/04/23 11:16:44;;;;;;;8.70;7.90;;;;;;;18.87;60.04;101039.92;1793878;78;21193;-85
2021/04/23 11:19:31;;;;;;;10.88;7.55;;;;;;;18.75;56.39;101043.34;1795774;78;21176;-85
2021/04/23 11:22:27;;;;;;;7.83;7.15;;;;;;;18.77;59.68;101045.33;1797793;78;21686;-85
2021/04/23 11:25:15;;;;;;;7.00;6.37;;;;;;;18.98;54.23;101040.98;1762820;81;21071;-87
2021/04/23 11:28:09;;;;;;;10.50;6.55;;;;;;;19.20;52.73;101026.34;1789346;79;21139;-88
2021/04/23 11:31:06;;;;;;;7.62;6.58;;;;;;;19.19;52.98;101031.28;1743700;81;21155;-88
2021/04/23 11:33:50;;;;;;;13.05;6.90;;;;;;;19.05;52.96;101033.23;1766348;81;21572;-86
2021/04/23 11:36:24;;;;;;;8.00;6.90;;;;;;;19.05;54.84;101027.95;1771188;80;21061;-87
2021/04/23 11:38:56;;;;;;;10.50;6.83;;;;;;;19.19;54.39;101013.31;1742727;81;21159;-88
2021/04/23 11:41:24;;;;;;;12.35;7.08;;;;;;;19.23;52.59;101017.27;1778096;79;21159;-88
2021/04/23 11:43:52;;;;;;;8.53;6.25;;;;;;;19.16;51.46;101013.63;1791066;79;21555;-88
2021/04/23 11:46:41;;;;;;;8.70;7.03;;;;;;;19.03;53.17;101004.85;1767069;80;21104;-88
2021/04/23 11:49:14;;;;;;;10.23;6.03;;;;;;;18.86;52.71;101015.36;1753647;80;21140;-88
2021/04/23 11:51:52;;;;;;;8.45;6.83;;;;;;;18.67;56.45;101019.56;1754293;80;21164;-88
2021/04/23 11:54:36;;;;;;;10.98;6.47;;;;;;;18.58;54.06;101006.34;1752594;78;21136;-88
2021/04/23 11:57:08;;;;;;;8.23;7.37;;;;;;;18.69;52.80;101009.69;1791179;78;21446;-87
2021/04/23 11:59:39;;;;;;;10.03;6.30;;;;;;;18.83;56.67;100997.20;1787787;78;21116;-88
2021/04/23 12:02:08;;;;;;;7.00;6.40;;;;;;;18.83;52.56;101003.80;1770029;80;21139;-88
2021/04/23 12:04:46;;;;;;;7.20;6.00;;;;;;;18.66;53.43;101002.08;1770388;79;21088;-88
2021/04/23 12:07:14;;;;;;;9.40;6.85;;;;;;;18.56;55.66;100996.44;1770515;80;21152;-88
2021/04/23 12:09:44;;;;;;;7.15;5.92;;;;;;;18.53;59.19;101002.05;1781367;78;21540;-88
2021/04/23 12:12:13;;;;;;;12.70;6.33;;;;;;;18.48;58.81;101002.19;1784334;78;21144;-88
2021/04/23 12:14:46;;;;;;;8.15;6.62;;;;;;;18.36;58.01;100999.81;1768559;80;21152;-88
2021/04/23 12:17:16;;;;;;;8.80;6.37;;;;;;;18.20;60.48;100999.25;1785564;80;21104;-88
2021/04/23 12:19:46;;;;;;;7.60;6.33;;;;;;;18.08;60.70;100988.62;1766140;80;21196;-87
2021/04/23 12:22:14;;;;;;;10.03;6.70;;;;;;;18.01;58.29;100988.91;1732211;82;22244;-88
2021/04/23 12:24:43;;;;;;;6.65;6.03;;;;;;;17.90;57.34;100984.22;1742310;82;21155;-88
2021/04/23 12:27:11;;;;;;;6.72;5.95;;;;;;;17.83;58.26;100992.38;1766294;78;21112;-88
2021/04/23 12:29:41;;;;;;;6.62;6.03;;;;;;;17.77;56.98;100986.41;1801776;78;21114;-87
2021/04/23 12:43:22;;;;;;;7.17;6.30;;;;;;;17.63;54.39;100977.25;1749317;82;21139;-87
2021/04/23 12:45:58;;;;;;;6.33;5.67;;;;;;;17.49;56.12;100982.59;1792478;79;21451;-87
2021/04/23 12:49:00;;;;;;;7.08;6.47;;;;;;;17.42;57.77;100974.97;1779266;79;21166;-87
2021/04/23 12:51:30;;;;;;;8.58;5.95;;;;;;;17.41;57.09;100976.76;1779943;80;21354;-87
2021/04/23 12:54:01;;;;;;;6.57;5.93;;;;;;;17.41;57.74;100972.81;1796090;80;21142;-87
2021/04/23 13:09:04;;;;;;;6.62;5.67;;;;;;;17.80;47.90;100975.08;1789874;79;21138;-87
2021/04/23 13:15:46;;;;;;;8.95;5.58;;;;;;;17.47;45.37;100980.09;1762471;81;21540;-88
2021/04/23 13:22:54;;;;;;;8.98;5.60;;;;;;;17.12;43.87;100978.30;1775312;80;21084;-87
2021/04/23 13:38:23;;;;;;;46.73;30.90;;;;;;;16.67;47.83;100974.19;1798341;78;21595;-88
2021/04/23 13:48:54;;;;;;;19.12;9.95;;;;;;;16.59;50.22;100954.38;1797215;78;21171;-89
2021/04/23 13:56:03;;;;;;;23.73;21.23;;;;;;;16.51;49.43;100948.52;1776695;79;21147;-87
2021/04/23 14:11:34;;;;;;;18.73;11.38;;;;;;;16.56;52.92;100947.62;1725323;81;21181;-88
2021/04/23 14:18:08;;;;;;;12.15;10.63;;;;;;;16.56;52.80;100945.45;1755347;81;21461;-88
2021/04/23 14:21:06;;;;;;;7.45;6.75;;;;;;;16.44;54.19;100953.21;1709839;82;21154;-87
2021/04/23 14:27:59;;;;;;;20.90;14.13;;;;;;;16.18;57.44;100954.70;1717508;81;21138;-89
2021/04/23 14:34:53;;;;;;;8.40;7.60;;;;;;;15.88;61.45;100953.94;1722362;82;21596;-87
2021/04/23 14:41:47;;;;;;;10.43;8.48;;;;;;;15.64;58.88;100954.39;1702905;84;21191;-87
2021/04/23 14:48:06;;;;;;;14.43;10.75;;;;;;;15.34;65.54;100949.66;1804347;77;21548;-87
2021/04/23 14:50:54;;;;;;;21.77;17.73;;;;;;;15.18;65.72;100949.37;1805925;79;21115;-87
2021/04/23 14:53:23;;;;;;;17.07;12.68;;;;;;;15.06;70.00;100940.31;1798257;78;21360;-88
2021/04/23 14:55:54;;;;;;;9.35;8.45;;;;;;;14.96;73.38;100934.22;1806163;79;21182;-88
2021/04/23 15:01:55;;;;;;;14.13;7.65;;;;;;;14.79;71.93;100925.23;1771202;80;21196;-90
2021/04/23 15:04:52;;;;;;;10.65;7.35;;;;;;;14.71;74.14;100918.52;1760407;78;21180;-87
2021/04/23 15:07:22;;;;;;;15.48;7.28;;;;;;;14.64;67.50;100915.58;1757178;80;21182;-88
2021/04/23 15:09:58;;;;;;;8.13;6.85;;;;;;;14.60;65.58;100914.20;1779567;79;21090;-88
2021/04/23 15:12:30;;;;;;;17.25;9.58;;;;;;;14.56;64.72;100907.09;1779188;77;21123;-88
2021/04/23 15:15:28;;;;;;;7.58;6.83;;;;;;;14.55;66.54;100897.57;1748993;80;21108;-87
2021/04/23 15:17:56;;;;;;;70.87;9.68;;;;;;;14.57;66.79;100901.36;1736790;81;21162;-88
2021/04/23 15:20:56;;;;;;;47.58;8.40;;;;;;;14.60;67.84;100901.09;1779697;78;21572;-88
2021/04/23 15:23:24;;;;;;;10.70;6.75;;;;;;;14.59;71.14;100891.58;1761070;79;21162;-89
2021/04/23 15:25:54;;;;;;;17.23;8.08;;;;;;;14.58;68.64;100893.34;1786999;78;21167;-88
2021/04/23 15:28:59;;;;;;;16.40;7.42;;;;;;;14.56;67.29;100891.37;1740598;81;21159;-88
2021/04/23 15:31:27;;;;;;;16.00;7.75;;;;;;;14.53;71.28;100890.81;1748232;78;21108;-89
2021/04/23 15:33:57;;;;;;;18.42;14.87;;;;;;;14.49;74.55;100887.14;1791061;78;21383;-89
2021/04/23 15:36:30;;;;;;;13.45;9.25;;;;;;;14.47;71.07;100890.36;1775040;80;21178;-89
2021/04/23 15:38:58;;;;;;;33.83;9.80;;;;;;;14.44;73.19;100884.56;1780527;78;21155;-89
2021/04/23 15:44:58;;;;;;;9.43;7.60;;;;;;;14.35;72.65;100882.28;1777372;79;21136;-88
2021/04/23 15:56:00;;;;;;;14.38;9.13;;;;;;;14.15;77.64;100882.70;1780129;78;21563;-87
2021/04/23 16:02:57;;;;;;;14.50;7.22;;;;;;;13.99;82.88;100880.09;1758088;81;21096;-89
2021/04/23 16:09:40;;;;;;;16.42;7.78;;;;;;;13.88;90.42;100874.46;1773490;79;21132;-88
2021/04/23 16:12:43;;;;;;;10.20;8.53;;;;;;;13.81;99.95;100874.64;1768478;80;21522;-89
2021/04/23 16:15:19;;;;;;;7.70;6.92;;;;;;;13.81;100.00;100878.56;1776281;80;21176;-88
2021/04/23 16:17:51;;;;;;;9.45;7.90;;;;;;;13.78;100.00;100877.50;1769642;79;21164;-91
2021/04/23 16:20:23;;;;;;;20.17;8.28;;;;;;;13.76;100.00;100875.48;1787021;78;21552;-91
2021/04/23 16:22:59;;;;;;;17.25;8.63;;;;;;;13.75;100.00;100875.62;1790520;78;21643;-91
2021/04/23 16:25:33;;;;;;;10.38;7.85;;;;;;;13.73;100.00;100882.30;1806314;79;21107;-90
2021/04/23 16:32:27;;;;;;;8.43;7.62;;;;;;;13.73;100.00;100873.14;1794226;79;21158;-87
2021/04/23 16:35:25;;;;;;;8.60;7.75;;;;;;;13.70;100.00;100874.21;1769514;80;21354;-87
2021/04/23 16:37:54;;;;;;;8.53;7.35;;;;;;;13.69;100.00;100878.27;1769749;79;22043;-88
2021/04/23 16:40:30;;;;;;;8.20;7.33;;;;;;;13.65;99.28;100878.20;1765270;80;21180;-88
2021/04/23 16:43:01;;;;;;;10.45;7.55;;;;;;;13.61;98.42;100881.55;1766794;80;21423;-89
2021/04/23 16:45:36;;;;;;;16.32;10.75;;;;;;;13.56;97.26;100884.55;1761281;79;21540;-89
2021/04/23 16:48:08;;;;;;;17.15;13.10;;;;;;;13.52;100.00;100893.59;1758513;79;21188;-88
2021/04/23 16:50:39;;;;;;;15.70;13.40;;;;;;;13.45;100.00;100891.14;1775056;78;21155;-89
2021/04/23 16:53:08;;;;;;;25.45;13.30;;;;;;;13.35;100.00;100892.36;1767373;79;21183;-88
2021/04/23 16:55:37;;;;;;;15.20;12.15;;;;;;;13.26;100.00;100897.85;1766825;79;21184;-88
2021/04/23 16:58:05;;;;;;;20.90;11.80;;;;;;;13.19;100.00;100896.70;1769160;79;21164;-88
2021/04/23 17:00:42;;;;;;;14.80;11.33;;;;;;;13.12;100.00;100899.47;1793667;78;22131;-87
2021/04/23 17:03:11;;;;;;;17.20;13.00;;;;;;;13.06;100.00;100894.25;1781371;78;21105;-87
2021/04/23 17:05:39;;;;;;;18.90;13.00;;;;;;;12.99;100.00;100897.02;1754560;80;21251;-87
2021/04/23 17:08:11;;;;;;;17.23;12.78;;;;;;;12.93;100.00;100898.83;1773311;78;21595;-88
2021/04/23 17:10:39;;;;;;;16.55;13.15;;;;;;;12.84;100.00;100897.80;1768440;78;21156;-88
2021/04/23 17:13:08;;;;;;;17.00;14.40;;;;;;;12.75;100.00;100899.83;1778476;78;21366;-88
2021/04/23 17:15:38;;;;;;;19.95;15.55;;;;;;;12.63;100.00;100897.23;1749626;80;21163;-89
2021/04/23 17:18:15;;;;;;;20.95;16.37;;;;;;;12.57;100.00;100895.11;1767218;79;21219;-88
2021/04/23 17:20:48;;;;;;;20.23;16.27;;;;;;;12.49;100.00;100898.80;1743784;80;21158;-88
2021/04/23 17:23:17;;;;;;;19.57;14.65;;;;;;;12.41;100.00;100902.50;1751941;80;21115;-88
2021/04/23 17:25:46;;;;;;;18.92;14.87;;;;;;;12.36;100.00;100902.85;1788162;79;22255;-88
2021/04/23 17:28:21;;;;;;;19.52;15.88;;;;;;;12.31;100.00;100905.00;1782099;78;21135;-88
2021/04/23 17:31:20;;;;;;;19.42;16.07;;;;;;;12.26;100.00;100905.81;1780878;78;21148;-88
2021/04/23 17:33:52;;;;;;;22.37;15.25;;;;;;;12.19;100.00;100905.48;1756599;81;21104;-88
2021/04/23 17:36:20;;;;;;;;;;;;;;;12.12;100.00;100907.72;1761081;79;21132;-89
2021/04/23 17:38:48;;;;;;;20.02;15.25;;;;;;;12.08;100.00;100906.77;1781840;79;22215;-88
2021/04/23 17:41:17;;;;;;;20.17;14.95;;;;;;;12.02;100.00;100908.06;1788216;79;21147;-88
2021/04/23 17:44:33;;;;;;;20.65;16.32;;;;;;;11.95;100.00;100910.30;1786440;80;21125;-87
2021/04/23 17:50:28;;;;;;;23.77;16.40;;;;;;;11.84;100.00;100917.65;1709831;82;21163;-88
2021/04/23 17:52:59;;;;;;;24.18;17.67;;;;;;;11.83;100.00;100912.52;1717805;81;22359;-88
2021/04/23 17:55:30;;;;;;;23.62;18.52;;;;;;;11.84;100.00;100916.80;1749847;81;21176;-88
2021/04/23 17:58:26;;;;;;;21.97;16.95;;;;;;;11.83;100.00;100909.91;1735469;81;21056;-88
2021/04/23 18:00:58;;;;;;;23.65;19.25;;;;;;;11.83;100.00;100912.06;1707751;81;21199;-87
2021/04/23 18:03:29;;;;;;;20.17;15.83;;;;;;;11.86;100.00;100912.80;1718711;82;21151;-88
2021/04/23 18:06:29;;;;;;;19.07;14.85;;;;;;;11.88;100.00;100908.27;1691317;82;22143;-90
2021/04/23 18:08:58;;;;;;;23.98;17.85;;;;;;;11.89;100.00;100906.02;1715762;82;21147;-89
2021/04/23 18:11:28;;;;;;;22.60;19.02;;;;;;;11.90;100.00;100904.58;1726948;81;21099;-88
2021/04/23 18:13:59;;;;;;;21.52;17.48;;;;;;;11.91;100.00;100897.61;1731534;81;21148;-89
2021/04/23 18:16:33;;;;;;;25.25;16.73;;;;;;;11.87;100.00;100897.01;1720983;81;21136;-89
2021/04/23 18:19:02;;;;;;;20.90;15.83;;;;;;;11.80;100.00;100902.34;1719560;81;21440;-89
2021/04/23 18:21:31;;;;;;;17.73;15.15;;;;;;;11.73;100.00;100901.14;1719615;83;21079;-89
2021/04/23 18:23:59;;;;;;;17.25;15.38;;;;;;;11.67;100.00;100898.03;1719310;82;21148;-89
2021/04/23 18:26:27;;;;;;;18.30;15.88;;;;;;;11.64;100.00;100898.73;1710184;81;21172;-89